LLN weather

Levelland Municipal Airport
Levelland, Texas, United States

Public forecast

Using degrees Fahrenheit for public forecast. Weather courtesy of forecast.io.

METAR (pilot weather report)

Closest report is Lubbock Preston Smith International Airport, 28.3 nm (52.3 km) ENE. Retrieved 2019/08/25 10:53 UTC (27 minutes ago):

KLBB 251053Z 19009KT 10SM FEW100 FEW250 23/17 A2991 RMK AO2 SLP070 OCNL LTGIC DSNT NE CB DSNT NE MOV SE T02330172

TAF (pilot weather forecast)

Closest forecast is Lubbock Preston Smith International Airport, 28.3 nm (52.3 km) ENE. Retrieved 2019/08/25 06:28 UTC (5 hours ago):

TAF KLBB 250526Z 2506/2606 18011KT P6SM FEW250 FM251400 21011KT P6SM SKC